Terminal Aerodrome Forecast
Issued by NWS

Home | Current Version | Previous Version | Text Only | Print | Product List | Glossary On
Versions: 1 2 3 4 5 6 7 8 9 10 11 12 13 14 15 16 17 18
000
FTUS41 KBGM 222300
TAFRME
TAF
KRME 222327Z 2300/2324 12003KT P6SM FEW060
     FM231300 24010KT P6SM BKN050 PROB30 2317/2319 4SM TSRA BKN035CB
     FM231900 29012KT P6SM SCT025 BKN045=

USA.gov is the U.S. government's official web portal to all federal, state and local government web resources and services.